Comunidad Estella, Puerto Rico
Current Conditions -  °F | °C
As of 7:50 AM on Thursday 30 Oct 2014 (Local Time) from TJBQ Reporting Station
Scattered Clouds Scattered Clouds  
Wind Chill: 79°   Ceiling: Unl
Heat Index: 82°   Visibility: 10mi
Dew Point: 75°   Wind: 3mph
Humidity: 89%   Direction: 120°ESE
Pressure: 29.86"   Gusts: NA
Location:  18.3427°N, 67.2504°W
Report Text: TJBQ 301150Z 12003KT 10SM SCT018 26/24 A2986 RMK RWY08 ATIS T
Loading
Personal Weather Stations






























Interactive Weather Map
Tropical Storm Tracking
New forecast layout! Learn more

10-Day Weather Forecast

Advertisements
Track Severe Weather on mobile